createdAt,value
2016-11-22T00:00:59.709Z,87.81
2016-11-22T00:02:00.013Z,88.76
2016-11-22T00:02:59.683Z,89.91
2016-11-22T00:03:59.673Z,91.73
2016-11-22T00:04:59.658Z,92.74
2016-11-22T00:05:59.642Z,93.79
2016-11-22T00:06:59.630Z,95.32
2016-11-22T00:07:59.630Z,96.75
2016-11-22T00:08:59.609Z,96.75
2016-11-22T00:09:59.592Z,98.61
2016-11-22T00:10:59.895Z,99.99
2016-11-22T00:11:59.574Z,99.99
2016-11-22T00:12:59.557Z,99.99
2016-11-22T00:13:59.545Z,99.99
2016-11-22T00:14:59.530Z,99.99
2016-11-22T00:15:59.519Z,99.99
2016-11-22T00:16:59.819Z,99.99
2016-11-22T00:17:59.490Z,99.99
2016-11-22T00:18:59.475Z,99.99
2016-11-22T00:19:59.464Z,99.99
2016-11-22T00:20:59.453Z,99.99
2016-11-22T00:21:59.438Z,99.99
2016-11-22T00:22:59.432Z,99.99
2016-11-22T00:23:59.410Z,99.99
2016-11-22T00:24:59.400Z,99.99
2016-11-22T00:25:59.383Z,99.99
2016-11-22T00:26:59.367Z,99.99
2016-11-22T00:27:59.355Z,99.99
2016-11-22T00:28:59.348Z,99.99
2016-11-22T00:29:59.326Z,99.99
2016-11-22T00:30:59.316Z,99.99
2016-11-22T00:31:59.298Z,99.99
2016-11-22T00:32:59.288Z,99.99
2016-11-22T00:33:59.272Z,99.99
2016-11-22T00:34:59.258Z,99.99
2016-11-22T00:35:59.249Z,99.99
2016-11-22T00:36:59.545Z,99.99
2016-11-22T00:37:59.217Z,99.99
2016-11-22T00:38:59.203Z,99.99
2016-11-22T00:39:59.191Z,99.99
2016-11-22T00:40:59.176Z,99.99
2016-11-22T00:41:59.162Z,99.99
2016-11-22T00:42:59.148Z,99.99
2016-11-22T00:43:59.140Z,99.99
2016-11-22T00:44:59.118Z,99.99
2016-11-22T00:45:59.107Z,99.99
2016-11-22T00:46:59.091Z,99.99
2016-11-22T00:47:59.081Z,99.99
2016-11-22T00:48:59.064Z,99.99
2016-11-22T00:49:59.053Z,99.99
2016-11-22T00:50:59.041Z,99.99
2016-11-22T00:51:59.025Z,99.99
2016-11-22T00:52:59.011Z,99.99
2016-11-22T00:53:59.000Z,99.99
2016-11-22T00:54:58.981Z,99.99
2016-11-22T00:55:58.968Z,99.99
2016-11-22T00:56:58.957Z,99.99
2016-11-22T00:57:58.940Z,99.99
2016-11-22T00:58:58.931Z,99.99
2016-11-22T00:59:58.913Z,99.99
2016-11-22T01:00:58.901Z,99.9
2016-11-22T01:01:58.890Z,99.99
2016-11-22T01:02:58.875Z,98.75
2016-11-22T01:03:58.859Z,98.66
2016-11-22T01:04:59.165Z,98.94
2016-11-22T01:05:58.833Z,98.94
2016-11-22T01:06:58.821Z,99.8
2016-11-22T01:07:58.810Z,98.75
2016-11-22T01:08:58.793Z,98.8
2016-11-22T01:09:58.787Z,98.18
2016-11-22T01:10:58.770Z,98.66
2016-11-22T01:11:58.760Z,98.18
2016-11-22T01:12:59.055Z,98.28
2016-11-22T01:13:58.727Z,98.75
2016-11-22T01:14:58.714Z,98.28
2016-11-22T01:15:58.698Z,98.33
2016-11-22T01:16:58.691Z,98.47
2016-11-22T01:17:58.680Z,97.99
2016-11-22T01:18:58.666Z,97.61
2016-11-22T01:19:58.646Z,96.89
2016-11-22T01:20:58.632Z,97.13
2016-11-22T01:21:58.617Z,96.84
2016-11-22T01:22:58.610Z,96.08
2016-11-22T01:23:58.589Z,96.22
2016-11-22T01:24:58.603Z,95.65
2016-11-22T01:25:58.565Z,94.7
2016-11-22T01:26:58.549Z,95.07
2016-11-22T01:27:58.540Z,94.7
2016-11-22T01:28:58.525Z,93.45
2016-11-22T01:29:58.512Z,93.74
2016-11-22T01:30:58.500Z,92.97
2016-11-22T01:31:58.488Z,91.74
2016-11-22T01:32:58.470Z,91.45
2016-11-22T01:33:58.460Z,91.93
2016-11-22T01:34:58.445Z,91.64
2016-11-22T01:35:58.430Z,92.21
2016-11-22T01:36:58.428Z,92.59
2016-11-22T01:37:58.737Z,93.26
2016-11-22T01:38:58.707Z,93.26
2016-11-22T01:39:58.381Z,93.26
2016-11-22T01:40:58.365Z,93.26
2016-11-22T01:41:58.352Z,93.45
2016-11-22T01:42:58.343Z,93.84
2016-11-22T01:43:58.527Z,94.22
2016-11-22T01:44:58.311Z,94.79
2016-11-22T01:45:58.299Z,95.27
2016-11-22T01:46:58.286Z,95.65
2016-11-22T01:47:58.270Z,96.03
2016-11-22T01:48:58.262Z,96.89
2016-11-22T01:49:58.246Z,97.37
2016-11-22T01:50:58.233Z,97.42
2016-11-22T01:51:58.219Z,97.52
2016-11-22T01:52:58.205Z,97.89
2016-11-22T01:53:58.190Z,98.37
2016-11-22T01:54:58.179Z,97.99
2016-11-22T01:55:58.164Z,98.75
2016-11-22T01:56:58.151Z,98.75
2016-11-22T01:57:58.139Z,98.75
2016-11-22T01:58:58.455Z,98.85
2016-11-22T01:59:58.112Z,99.52
2016-11-22T02:00:58.099Z,99.62
2016-11-22T02:01:58.086Z,99.9
2016-11-22T02:02:58.099Z,99.99
2016-11-22T02:03:58.059Z,99.99
2016-11-22T02:04:58.041Z,99.99
2016-11-22T02:05:58.030Z,99.9
2016-11-22T02:06:58.017Z,99.99
2016-11-22T02:07:58.002Z,99.99
2016-11-22T02:08:57.989Z,99.99
2016-11-22T02:09:57.979Z,99.99
2016-11-22T02:10:57.969Z,99.99
2016-11-22T02:11:57.953Z,99.99
2016-11-22T02:12:57.935Z,99.99
2016-11-22T02:13:57.919Z,99.99
2016-11-22T02:14:57.907Z,99.99
2016-11-22T02:15:58.218Z,99.99
2016-11-22T02:16:57.877Z,99.99
2016-11-22T02:17:57.868Z,99.99
2016-11-22T02:18:57.853Z,99.99
2016-11-22T02:19:57.840Z,99.99
2016-11-22T02:20:57.826Z,99.99
2016-11-22T02:21:57.814Z,99.99
2016-11-22T02:22:57.799Z,99.99
2016-11-22T02:23:57.783Z,99.99
2016-11-22T02:24:57.775Z,99.99
2016-11-22T02:25:57.758Z,99.99
2016-11-22T02:26:57.744Z,99.99
2016-11-22T02:27:57.782Z,99.99
2016-11-22T02:28:57.718Z,99.52
2016-11-22T02:29:57.703Z,99.99
2016-11-22T02:30:57.690Z,99.33
2016-11-22T02:31:57.676Z,99.52
2016-11-22T02:32:57.660Z,99.99
2016-11-22T02:33:57.657Z,99.99
2016-11-22T02:34:57.634Z,99.99
2016-11-22T02:35:57.625Z,99.8
2016-11-22T02:36:57.616Z,99.9
2016-11-22T02:37:57.591Z,99.99
2016-11-22T02:38:57.893Z,99.99
2016-11-22T02:39:57.563Z,99.99
2016-11-22T02:40:57.867Z,99.99
2016-11-22T02:41:57.535Z,99.99
2016-11-22T02:42:57.528Z,99.99
2016-11-22T02:43:57.510Z,99.99
2016-11-22T02:44:57.505Z,99.99
2016-11-22T02:45:57.479Z,99.99
2016-11-22T02:46:57.469Z,99.99
2016-11-22T02:47:57.457Z,99.99
2016-11-22T02:48:57.439Z,99.99
2016-11-22T02:49:57.428Z,99.99
2016-11-22T02:50:57.412Z,99.99
2016-11-22T02:51:57.400Z,99.99
2016-11-22T02:52:57.382Z,99.99
2016-11-22T02:53:57.371Z,99.99
2016-11-22T02:54:57.362Z,99.99
2016-11-22T02:55:57.347Z,99.99
2016-11-22T02:56:57.333Z,99.99
2016-11-22T02:57:57.314Z,99.99
2016-11-22T02:58:57.303Z,99.95
2016-11-22T02:59:57.290Z,99.99
2016-11-22T03:00:57.589Z,99.47
2016-11-22T03:01:57.260Z,99.47
2016-11-22T03:02:57.248Z,99.95
2016-11-22T03:03:57.234Z,99.99
2016-11-22T03:04:57.215Z,99.66
2016-11-22T03:05:57.203Z,99.99
2016-11-22T03:06:57.188Z,99.85
2016-11-22T03:07:57.175Z,99.66
2016-11-22T03:08:57.162Z,99.18
2016-11-22T03:09:57.154Z,99.66
2016-11-22T03:10:57.134Z,99.08
2016-11-22T03:11:57.119Z,99.66
2016-11-22T03:12:57.109Z,99.57
2016-11-22T03:13:57.097Z,98.9
2016-11-22T03:14:57.076Z,98.8
2016-11-22T03:15:57.065Z,99.18
2016-11-22T03:16:57.054Z,98.99
2016-11-22T03:17:57.040Z,99.08
2016-11-22T03:18:57.030Z,99.13
2016-11-22T03:19:57.010Z,98.94
2016-11-22T03:20:56.999Z,98.47
2016-11-22T03:21:56.981Z,98.27
2016-11-22T03:22:56.969Z,97.75
2016-11-22T03:23:56.951Z,97.18
2016-11-22T03:24:56.940Z,95.94
2016-11-22T03:25:56.929Z,96.51
2016-11-22T03:26:56.912Z,96.42
2016-11-22T03:27:56.898Z,95.84
2016-11-22T03:28:56.886Z,95.84
2016-11-22T03:29:56.869Z,95.08
2016-11-22T03:30:56.854Z,94.84
2016-11-22T03:31:56.846Z,95.03
2016-11-22T03:32:56.829Z,94.51
2016-11-22T03:33:56.812Z,94.03
2016-11-22T03:34:56.801Z,94.74
2016-11-22T03:35:56.784Z,94.79
2016-11-22T03:36:56.774Z,94.98
2016-11-22T03:37:56.761Z,95.27
2016-11-22T03:38:56.743Z,94.79
2016-11-22T03:39:56.733Z,94.79
2016-11-22T03:40:56.720Z,95.08
2016-11-22T03:41:56.703Z,95.27
2016-11-22T03:42:56.689Z,94.6
2016-11-22T03:43:57.189Z,95.17
2016-11-22T03:44:56.664Z,95.17
2016-11-22T03:45:56.648Z,95.17
2016-11-22T03:46:56.636Z,95.08
2016-11-22T03:47:56.620Z,93.93
2016-11-22T03:48:56.608Z,94.03
2016-11-22T03:49:56.592Z,94.41
2016-11-22T03:50:56.578Z,94.41
2016-11-22T03:51:56.564Z,94.31
2016-11-22T03:52:56.557Z,94.22
2016-11-22T03:53:56.543Z,94.12
2016-11-22T03:54:56.526Z,93.65
2016-11-22T03:55:56.515Z,93.36
2016-11-22T03:56:56.496Z,94.03
2016-11-22T03:57:56.481Z,93.93
2016-11-22T03:58:56.469Z,93.26
2016-11-22T03:59:56.450Z,92.79
2016-11-22T04:00:56.440Z,92.31
2016-11-22T04:01:56.430Z,92.5
2016-11-22T04:02:56.412Z,93.07
2016-11-22T04:03:56.401Z,93.84
2016-11-22T04:04:56.388Z,92.69
2016-11-22T04:05:56.372Z,92.6
2016-11-22T04:06:56.357Z,92.79
2016-11-22T04:07:56.343Z,93.07
2016-11-22T04:08:56.332Z,92.41
2016-11-22T04:09:56.314Z,92.69
2016-11-22T04:10:56.310Z,92.6
2016-11-22T04:11:56.298Z,92.41
2016-11-22T04:12:56.273Z,92.31
2016-11-22T04:13:56.577Z,92.21
2016-11-22T04:14:56.249Z,91.93
2016-11-22T04:15:56.237Z,91.97
2016-11-22T04:16:56.270Z,92.02
2016-11-22T04:17:56.524Z,92.02
2016-11-22T04:18:56.194Z,91.64
2016-11-22T04:19:56.178Z,91.45
2016-11-22T04:20:56.166Z,91.16
2016-11-22T04:21:56.151Z,90.88
2016-11-22T04:22:56.138Z,90.06
2016-11-22T04:23:56.127Z,90.83
2016-11-22T04:24:56.110Z,90.06
2016-11-22T04:25:56.409Z,89.68
2016-11-22T04:26:56.082Z,89.78
2016-11-22T04:27:56.070Z,89.68
2016-11-22T04:28:56.056Z,89.59
2016-11-22T04:29:56.040Z,89.68
2016-11-22T04:30:56.027Z,89.59
2016-11-22T04:31:56.014Z,89.68
2016-11-22T04:32:55.998Z,89.78
2016-11-22T04:33:55.991Z,89.78
2016-11-22T04:34:55.971Z,89.39
2016-11-22T04:35:55.960Z,89.49
2016-11-22T04:36:55.947Z,89.49
2016-11-22T04:37:55.934Z,89.01
2016-11-22T04:38:55.927Z,88.54
2016-11-22T04:39:55.905Z,88.63
2016-11-22T04:40:55.889Z,88.34
2016-11-22T04:41:55.879Z,88.25
2016-11-22T04:42:55.865Z,88.54
2016-11-22T04:43:55.853Z,87.96
2016-11-22T04:44:55.840Z,87.2
2016-11-22T04:45:55.824Z,87.01
2016-11-22T04:46:55.809Z,87.2
2016-11-22T04:47:55.797Z,85.86
2016-11-22T04:48:55.785Z,86.43
2016-11-22T04:49:55.770Z,86.29
2016-11-22T04:50:55.758Z,86
2016-11-22T04:51:55.743Z,87.15
2016-11-22T04:52:55.732Z,86.82
2016-11-22T04:53:55.716Z,86.72
2016-11-22T04:54:55.704Z,86.53
2016-11-22T04:55:55.719Z,85.96
2016-11-22T04:56:55.678Z,86.15
2016-11-22T04:57:55.663Z,86.05
2016-11-22T04:58:55.650Z,85.58
2016-11-22T04:59:55.637Z,86.15
2016-11-22T05:00:55.624Z,85.48
2016-11-22T05:01:55.609Z,86.15
2016-11-22T05:02:55.597Z,86.34
2016-11-22T05:03:55.581Z,86.63
2016-11-22T05:04:55.569Z,85.96
2016-11-22T05:05:55.555Z,85.77
2016-11-22T05:06:55.546Z,85.58
2016-11-22T05:07:55.532Z,85.67
2016-11-22T05:08:55.516Z,86.15
2016-11-22T05:09:55.817Z,86.05
2016-11-22T05:10:55.491Z,85.67
2016-11-22T05:11:55.476Z,85.29
2016-11-22T05:12:55.780Z,86.15
2016-11-22T05:13:55.456Z,85.58
2016-11-22T05:14:55.443Z,86.05
2016-11-22T05:15:55.430Z,86.15
2016-11-22T05:16:55.409Z,85.86
2016-11-22T05:17:55.400Z,85
2016-11-22T05:18:55.382Z,84.81
2016-11-22T05:19:55.372Z,85
2016-11-22T05:20:55.357Z,84.91
2016-11-22T05:21:55.344Z,85.86
2016-11-22T05:22:55.331Z,85.58
2016-11-22T05:23:55.317Z,85
2016-11-22T05:24:55.303Z,85.19
2016-11-22T05:25:55.290Z,84.72
2016-11-22T05:26:55.279Z,84.62
2016-11-22T05:27:55.262Z,85
2016-11-22T05:28:55.252Z,85.38
2016-11-22T05:29:55.235Z,85.1
2016-11-22T05:30:55.220Z,85.05
2016-11-22T05:31:55.206Z,85.67
2016-11-22T05:32:55.197Z,85.67
2016-11-22T05:33:55.180Z,86.24
2016-11-22T05:34:55.172Z,85.63
2016-11-22T05:35:55.157Z,86.15
2016-11-22T05:36:55.141Z,85.96
2016-11-22T05:37:55.134Z,85.91
2016-11-22T05:38:55.127Z,85.82
2016-11-22T05:39:55.105Z,86.01
2016-11-22T05:40:55.090Z,86.24
2016-11-22T05:41:55.076Z,85.86
2016-11-22T05:42:55.068Z,86.34
2016-11-22T05:43:55.250Z,85.58
2016-11-22T05:44:55.034Z,86.34
2016-11-22T05:45:55.020Z,86.1
2016-11-22T05:46:55.008Z,85.67
2016-11-22T05:47:55.011Z,85.77
2016-11-22T05:48:54.981Z,86.24
2016-11-22T05:49:55.280Z,86.24
2016-11-22T05:50:55.271Z,85.29
2016-11-22T05:51:54.939Z,85.34
2016-11-22T05:52:54.950Z,85.67
2016-11-22T05:53:54.913Z,85.15
2016-11-22T05:54:54.901Z,85.1
2016-11-22T05:55:54.887Z,85.05
2016-11-22T05:56:54.873Z,84.91
2016-11-22T05:57:54.863Z,85.19
2016-11-22T05:58:54.848Z,85.29
2016-11-22T05:59:54.832Z,86.15
2016-11-22T06:00:54.821Z,85.67
2016-11-22T06:01:54.812Z,85.48
2016-11-22T06:02:54.798Z,85.19
2016-11-22T06:03:54.780Z,84.43
2016-11-22T06:04:54.767Z,85.38
2016-11-22T06:05:54.753Z,85.77
2016-11-22T06:06:54.737Z,85.25
2016-11-22T06:07:54.728Z,85.77
2016-11-22T06:08:54.716Z,85.05
2016-11-22T06:09:54.700Z,85.25
2016-11-22T06:10:54.688Z,85
2016-11-22T06:11:54.677Z,84.77
2016-11-22T06:12:54.976Z,85
2016-11-22T06:13:54.646Z,84.77
2016-11-22T06:14:54.631Z,84.77
2016-11-22T06:15:54.618Z,84.52
2016-11-22T06:16:54.606Z,84.96
2016-11-22T06:17:54.591Z,85.44
2016-11-22T06:18:54.582Z,84.77
2016-11-22T06:19:54.619Z,83.62
2016-11-22T06:20:54.562Z,83.72
2016-11-22T06:21:54.539Z,83.53
2016-11-22T06:22:54.524Z,83.53
2016-11-22T06:23:54.517Z,83.86
2016-11-22T06:24:54.497Z,84.48
2016-11-22T06:25:54.483Z,84.72
2016-11-22T06:26:54.831Z,84.48
2016-11-22T06:27:54.457Z,84.52
2016-11-22T06:28:54.442Z,84.33
2016-11-22T06:29:54.428Z,83.47
2016-11-22T06:30:54.414Z,83.95
2016-11-22T06:31:54.401Z,83.67
2016-11-22T06:32:54.387Z,83.95
2016-11-22T06:33:54.375Z,83.86
2016-11-22T06:34:54.364Z,84.05
2016-11-22T06:35:54.349Z,84.14
2016-11-22T06:36:54.648Z,84.05
2016-11-22T06:37:54.326Z,84.52
2016-11-22T06:38:54.625Z,84.14
2016-11-22T06:39:54.295Z,83.76
2016-11-22T06:40:54.594Z,83.67
2016-11-22T06:41:54.580Z,83.86
2016-11-22T06:42:54.253Z,84.43
2016-11-22T06:43:54.237Z,84.1
2016-11-22T06:44:54.227Z,85.05
2016-11-22T06:45:54.213Z,85.48
2016-11-22T06:46:54.196Z,84.96
2016-11-22T06:47:54.181Z,85.25
2016-11-22T06:48:54.168Z,85.91
2016-11-22T06:49:54.155Z,85.82
2016-11-22T06:50:54.143Z,86.2
2016-11-22T06:51:54.127Z,86.39
2016-11-22T06:52:54.117Z,86.39
2016-11-22T06:53:54.420Z,86.96
2016-11-22T06:54:54.092Z,87.25
2016-11-22T06:55:54.076Z,86.87
2016-11-22T06:56:54.062Z,87.06
2016-11-22T06:57:54.047Z,86.87
2016-11-22T06:58:54.043Z,86.87
2016-11-22T06:59:54.340Z,86.96
2016-11-22T07:00:54.003Z,87.63
2016-11-22T07:01:53.992Z,86.87
2016-11-22T07:02:53.976Z,87.44
2016-11-22T07:03:53.963Z,87.15
2016-11-22T07:04:53.963Z,87.35
2016-11-22T07:05:53.937Z,87.63
2016-11-22T07:06:54.239Z,87.82
2016-11-22T07:07:53.911Z,87.82
2016-11-22T07:08:54.214Z,87.73
2016-11-22T07:09:53.879Z,88.3
2016-11-22T07:10:53.871Z,88.2
2016-11-22T07:11:53.861Z,88.78
2016-11-22T07:12:53.843Z,89.16
2016-11-22T07:13:54.146Z,89.31
2016-11-22T07:14:53.811Z,88.83
2016-11-22T07:15:53.805Z,89.31
2016-11-22T07:16:54.104Z,89.21
2016-11-22T07:17:53.777Z,89.12
2016-11-22T07:18:53.756Z,89.02
2016-11-22T07:19:54.060Z,89.02
2016-11-22T07:20:53.729Z,89.59
2016-11-22T07:21:53.715Z,88.83
2016-11-22T07:22:53.701Z,89.02
2016-11-22T07:23:53.686Z,89.5
2016-11-22T07:24:53.671Z,89.5
2016-11-22T07:25:53.971Z,89.5
2016-11-22T07:26:53.645Z,89.78
2016-11-22T07:27:53.630Z,89.78
2016-11-22T07:28:53.617Z,89.78
2016-11-22T07:29:53.607Z,89.59
2016-11-22T07:30:53.589Z,89.4
2016-11-22T07:31:53.579Z,90.26
2016-11-22T07:32:53.564Z,90.07
2016-11-22T07:33:53.547Z,90.07
2016-11-22T07:34:53.533Z,90.17
2016-11-22T07:35:53.525Z,89.69
2016-11-22T07:36:53.509Z,90.64
2016-11-22T07:37:53.501Z,90.36
2016-11-22T07:38:53.479Z,90.64
2016-11-22T07:39:53.466Z,90.55
2016-11-22T07:40:53.452Z,91.41
2016-11-22T07:41:53.447Z,91.41
2016-11-22T07:42:53.426Z,91.02
2016-11-22T07:43:53.615Z,90.45
2016-11-22T07:44:53.396Z,90.83
2016-11-22T07:45:53.382Z,90.64
2016-11-22T07:46:53.371Z,90.64
2016-11-22T07:47:53.359Z,90.55
2016-11-22T07:48:53.343Z,90.17
2016-11-22T07:49:53.326Z,89.5
2016-11-22T07:50:53.315Z,89.78
2016-11-22T07:51:53.300Z,89.5
2016-11-22T07:52:53.290Z,89.88
2016-11-22T07:53:53.274Z,89.59
2016-11-22T07:54:53.573Z,89.88
2016-11-22T07:55:53.242Z,89.69
2016-11-22T07:56:53.232Z,89.69
2016-11-22T07:57:53.534Z,89.97
2016-11-22T07:58:53.238Z,89.88
2016-11-22T07:59:53.190Z,90.17
2016-11-22T08:00:53.492Z,90.26
2016-11-22T08:01:53.168Z,89.69
2016-11-22T08:02:53.158Z,89.78
2016-11-22T08:03:53.144Z,89.78
2016-11-22T08:04:53.129Z,90.26
2016-11-22T08:05:53.110Z,90.07
2016-11-22T08:06:53.093Z,89.88
2016-11-22T08:07:53.085Z,90.07
2016-11-22T08:08:53.068Z,90.36
2016-11-22T08:09:53.057Z,89.69
2016-11-22T08:10:53.048Z,89.59
2016-11-22T08:11:53.027Z,89.12
2016-11-22T08:12:53.016Z,88.68
2016-11-22T08:13:53.001Z,88.68
2016-11-22T08:14:52.986Z,88.78
2016-11-22T08:15:53.023Z,87.63
2016-11-22T08:16:52.967Z,87.92
2016-11-22T08:17:52.950Z,87.54
2016-11-22T08:18:52.937Z,88.11
2016-11-22T08:19:52.922Z,87.63
2016-11-22T08:20:52.906Z,87.35
2016-11-22T08:21:53.210Z,87.54
2016-11-22T08:22:52.882Z,87.82
2016-11-22T08:23:52.874Z,88.25
2016-11-22T08:24:52.850Z,87.58
2016-11-22T08:25:52.841Z,87.39
2016-11-22T08:26:52.830Z,87.63
2016-11-22T08:27:52.812Z,87.44
2016-11-22T08:28:52.850Z,87.25
2016-11-22T08:29:52.785Z,87.1
2016-11-22T08:30:52.777Z,87.25
2016-11-22T08:31:52.764Z,87.25
2016-11-22T08:32:52.749Z,87.1
2016-11-22T08:33:52.733Z,86.82
2016-11-22T08:34:52.718Z,87.39
2016-11-22T08:35:52.703Z,87.1
2016-11-22T08:36:52.691Z,86.53
2016-11-22T08:37:52.999Z,86.91
2016-11-22T08:38:52.666Z,86.72
2016-11-22T08:39:52.652Z,86.05
2016-11-22T08:40:52.951Z,86.43
2016-11-22T08:41:52.626Z,86.34
2016-11-22T08:42:52.611Z,85.96
2016-11-22T08:43:52.599Z,86.72
2016-11-22T08:44:52.584Z,86.91
2016-11-22T08:45:52.572Z,86.24
2016-11-22T08:46:52.614Z,86.34
2016-11-22T08:47:52.547Z,86.43
2016-11-22T08:48:52.850Z,86.72
2016-11-22T08:49:52.518Z,86.15
2016-11-22T08:50:52.528Z,86.63
2016-11-22T08:51:52.494Z,86.63
2016-11-22T08:52:52.482Z,86.43
2016-11-22T08:53:52.471Z,87.48
2016-11-22T08:54:52.455Z,87.39
2016-11-22T08:55:52.441Z,87.01
2016-11-22T08:56:52.428Z,87.29
2016-11-22T08:57:52.432Z,87.29
2016-11-22T08:58:52.407Z,87.1
2016-11-22T08:59:52.388Z,86.43
2016-11-22T09:00:52.379Z,86.53
2016-11-22T09:01:52.365Z,86.82
2016-11-22T09:02:52.351Z,86.72
2016-11-22T09:03:52.340Z,86.53
2016-11-22T09:04:52.375Z,86.34
2016-11-22T09:05:52.310Z,86.72
2016-11-22T09:06:52.300Z,86.05
2016-11-22T09:07:52.292Z,86.15
2016-11-22T09:08:52.272Z,85.86
2016-11-22T09:09:52.261Z,85.96
2016-11-22T09:10:52.250Z,85.96
2016-11-22T09:11:52.235Z,86.29
2016-11-22T09:12:52.220Z,86
2016-11-22T09:13:52.211Z,85.81
2016-11-22T09:14:52.195Z,85.52
2016-11-22T09:15:52.187Z,84.76
2016-11-22T09:16:52.173Z,85.14
2016-11-22T09:17:52.159Z,85.77
2016-11-22T09:18:52.151Z,85.62
2016-11-22T09:19:52.182Z,85.24
2016-11-22T09:20:52.123Z,85.52
2016-11-22T09:21:52.109Z,85.33
2016-11-22T09:22:52.093Z,85.62
2016-11-22T09:23:52.083Z,85.52
2016-11-22T09:24:52.069Z,84.76
2016-11-22T09:25:52.059Z,84.95
2016-11-22T09:26:52.411Z,84.85
2016-11-22T09:27:52.031Z,84.76
2016-11-22T09:28:52.020Z,84.66
2016-11-22T09:29:52.014Z,84.56
2016-11-22T09:30:52.005Z,84.19
2016-11-22T09:31:51.983Z,83.42
2016-11-22T09:32:51.970Z,83.9
2016-11-22T09:33:52.013Z,84.56
2016-11-22T09:34:51.944Z,83.23
2016-11-22T09:35:52.009Z,83.04
2016-11-22T09:36:51.924Z,83.42
2016-11-22T09:37:51.910Z,84.09
2016-11-22T09:38:51.896Z,83.65
2016-11-22T09:39:52.202Z,84.09
2016-11-22T09:40:51.873Z,84.13
2016-11-22T09:41:51.861Z,83.04
2016-11-22T09:42:51.849Z,83.08
2016-11-22T09:43:52.040Z,83.37
2016-11-22T09:44:52.144Z,83.27
2016-11-22T09:45:51.815Z,83.08
2016-11-22T09:46:51.802Z,83.08
2016-11-22T09:47:51.794Z,82.7
2016-11-22T09:48:51.776Z,83.46
2016-11-22T09:49:51.766Z,82.41
2016-11-22T09:50:52.099Z,82.7
2016-11-22T09:51:51.741Z,82.79
2016-11-22T09:52:52.072Z,83.46
2016-11-22T09:53:52.034Z,83.17
2016-11-22T09:54:51.709Z,82.79
2016-11-22T09:55:51.697Z,83.17
2016-11-22T09:56:52.002Z,83.37
2016-11-22T09:57:51.673Z,82.98
2016-11-22T09:58:51.661Z,83.37
2016-11-22T09:59:51.645Z,83.65
2016-11-22T10:00:51.637Z,83.46
2016-11-22T10:01:51.626Z,83.56
2016-11-22T10:02:51.614Z,83.37
2016-11-22T10:03:51.606Z,84.13
2016-11-22T10:04:51.589Z,84.23
2016-11-22T10:05:51.580Z,84.23
2016-11-22T10:06:51.563Z,84.23
2016-11-22T10:07:51.560Z,83.84
2016-11-22T10:08:51.540Z,83.27
2016-11-22T10:09:51.533Z,83.56
2016-11-22T10:10:51.516Z,83.46
2016-11-22T10:11:51.506Z,84.13
2016-11-22T10:12:51.495Z,84.03
2016-11-22T10:13:51.483Z,83.94
2016-11-22T10:14:51.470Z,84.42
2016-11-22T10:15:51.464Z,84.32
2016-11-22T10:16:51.448Z,83.65
2016-11-22T10:17:51.436Z,83.84
2016-11-22T10:18:51.737Z,84.32
2016-11-22T10:19:51.413Z,83.84
2016-11-22T10:20:51.402Z,84.61
2016-11-22T10:21:51.390Z,84.61
2016-11-22T10:22:51.380Z,84.61
2016-11-22T10:23:51.367Z,84.89
2016-11-22T10:24:51.353Z,84.03
2016-11-22T10:25:51.343Z,83.94
2016-11-22T10:26:51.333Z,84.13
2016-11-22T10:27:51.325Z,83.37
2016-11-22T10:28:51.625Z,84.61
2016-11-22T10:29:51.301Z,84.13
2016-11-22T10:30:51.311Z,84.03
2016-11-22T10:31:51.273Z,83.27
2016-11-22T10:32:51.261Z,83.56
2016-11-22T10:33:51.254Z,83.27
2016-11-22T10:34:51.239Z,83.94
2016-11-22T10:35:51.233Z,83.56
2016-11-22T10:36:51.216Z,83.46
2016-11-22T10:37:51.205Z,82.89
2016-11-22T10:38:51.195Z,82.22
2016-11-22T10:39:51.183Z,82.6
2016-11-22T10:40:51.173Z,82.89
2016-11-22T10:41:51.161Z,82.51
2016-11-22T10:42:51.157Z,82.7
2016-11-22T10:43:51.137Z,82.6
2016-11-22T10:44:51.127Z,82.03
2016-11-22T10:45:51.116Z,82.79
2016-11-22T10:46:51.105Z,82.51
2016-11-22T10:47:51.097Z,82.03
2016-11-22T10:48:51.083Z,82.41
2016-11-22T10:49:51.072Z,82.98
2016-11-22T10:50:51.061Z,81.84
2016-11-22T10:51:51.052Z,82.12
2016-11-22T10:52:51.038Z,83.17
2016-11-22T10:53:51.026Z,82.03
2016-11-22T10:54:51.017Z,82.31
2016-11-22T10:55:51.005Z,82.22
2016-11-22T10:56:50.991Z,82.6
2016-11-22T10:57:50.981Z,82.6
2016-11-22T10:58:50.971Z,83.08
2016-11-22T10:59:51.274Z,82.6
2016-11-22T11:00:50.950Z,81.84
2016-11-22T11:01:50.941Z,82.31
2016-11-22T11:02:50.929Z,81.93
2016-11-22T11:03:50.913Z,81.74
2016-11-22T11:04:50.936Z,82.31
2016-11-22T11:05:50.903Z,82.03
2016-11-22T11:06:50.922Z,82.31
2016-11-22T11:07:50.876Z,81.84
2016-11-22T11:08:50.862Z,82.6
2016-11-22T11:09:50.853Z,82.31
2016-11-22T11:10:50.834Z,82.22
2016-11-22T11:11:50.833Z,82.6
2016-11-22T11:12:50.815Z,83.08
2016-11-22T11:13:50.816Z,83.56
2016-11-22T11:14:50.794Z,83.08
2016-11-22T11:15:50.817Z,82.79
2016-11-22T11:16:50.771Z,82.79
2016-11-22T11:17:50.760Z,82.89
2016-11-22T11:18:50.751Z,82.51
2016-11-22T11:19:50.737Z,82.31
2016-11-22T11:20:50.726Z,82.7
2016-11-22T11:21:50.714Z,82.98
2016-11-22T11:22:50.701Z,82.51
2016-11-22T11:23:50.692Z,82.22
2016-11-22T11:24:50.683Z,83.08
2016-11-22T11:25:50.716Z,81.84
2016-11-22T11:26:50.657Z,80.16
2016-11-22T11:27:50.645Z,80.69
2016-11-22T11:28:50.636Z,80.54
2016-11-22T11:29:50.623Z,81.02
2016-11-22T11:30:50.612Z,81.49
2016-11-22T11:31:50.604Z,80.63
2016-11-22T11:32:50.587Z,80.63
2016-11-22T11:33:50.579Z,79.68
2016-11-22T11:34:50.885Z,79.68
2016-11-22T11:35:50.556Z,80.35
2016-11-22T11:36:50.549Z,79.87
2016-11-22T11:37:50.535Z,80.06
2016-11-22T11:38:50.525Z,80.16
2016-11-22T11:39:50.514Z,79.77
2016-11-22T11:40:50.503Z,79.1
2016-11-22T11:41:50.503Z,78.43
2016-11-22T11:42:50.801Z,77.95
2016-11-22T11:43:50.673Z,77.99
2016-11-22T11:44:50.462Z,77.9
2016-11-22T11:45:50.449Z,78.57
2016-11-22T11:46:50.436Z,78.76
2016-11-22T11:47:50.428Z,79.68
2016-11-22T11:48:50.416Z,79.72
2016-11-22T11:49:50.410Z,80.1
2016-11-22T11:50:50.400Z,79.52
2016-11-22T11:51:50.391Z,79.33
2016-11-22T11:52:50.375Z,79.43
2016-11-22T11:53:50.378Z,79.52
2016-11-22T11:54:50.358Z,79.43
2016-11-22T11:55:50.350Z,79.43
2016-11-22T11:56:50.342Z,77.9
2016-11-22T11:57:50.328Z,76.94
2016-11-22T11:58:50.317Z,77.61
2016-11-22T11:59:50.305Z,77.33
2016-11-22T12:00:50.301Z,77.99
2016-11-22T12:01:50.283Z,77.99
2016-11-22T12:02:50.277Z,77.9
2016-11-22T12:03:50.268Z,76.56
2016-11-22T12:04:50.255Z,76.94
2016-11-22T12:05:50.247Z,77.04
2016-11-22T12:06:50.237Z,77.99
2016-11-22T12:07:50.229Z,77.13
2016-11-22T12:08:50.220Z,77.42
2016-11-22T12:09:50.213Z,78.28
2016-11-22T12:10:50.205Z,77.23
2016-11-22T12:11:50.506Z,76.65
2016-11-22T12:12:50.184Z,77.23
2016-11-22T12:13:50.171Z,78.28
2016-11-22T12:14:50.161Z,77.13
2016-11-22T12:15:50.471Z,76.75
2016-11-22T12:16:50.143Z,77.26
2016-11-22T12:17:50.134Z,77.17
2016-11-22T12:18:50.125Z,76.89
2016-11-22T12:19:50.118Z,76.98
2016-11-22T12:20:50.106Z,75.64
2016-11-22T12:21:50.099Z,76.21
2016-11-22T12:22:50.091Z,75.45
2016-11-22T12:23:50.079Z,74.49
2016-11-22T12:24:50.070Z,74.87
2016-11-22T12:25:50.063Z,75.83
2016-11-22T12:26:50.106Z,76.6
2016-11-22T12:27:50.043Z,74.87
2016-11-22T12:28:50.037Z,75.45
2016-11-22T12:29:50.027Z,75.83
2016-11-22T12:30:50.017Z,75.83
2016-11-22T12:31:50.010Z,75.54
2016-11-22T12:32:50.002Z,76.4
2016-11-22T12:33:49.993Z,76.94
2016-11-22T12:34:49.985Z,76.56
2016-11-22T12:35:49.982Z,76.98
2016-11-22T12:36:49.969Z,76.08
2016-11-22T12:37:49.959Z,76.27
2016-11-22T12:38:49.959Z,75.93
2016-11-22T12:39:49.943Z,76.31
2016-11-22T12:40:49.928Z,76.65
2016-11-22T12:41:50.236Z,76.21
2016-11-22T12:42:49.912Z,76.12
2016-11-22T12:43:50.217Z,75.73
2016-11-22T12:44:49.908Z,75.83
2016-11-22T12:45:49.884Z,75.45
2016-11-22T12:46:49.874Z,75.22
2016-11-22T12:47:49.866Z,75.7
2016-11-22T12:48:49.852Z,76.37
2016-11-22T12:49:49.846Z,76.94
2016-11-22T12:50:49.836Z,77.13
2016-11-22T12:51:49.831Z,76.46
2016-11-22T12:52:49.816Z,77.19
2016-11-22T12:53:49.807Z,76.94
2016-11-22T12:54:49.797Z,77.13
2016-11-22T12:55:49.787Z,77.23